Time;durP1;ratioP1;P1;durP2;ratioP2;P2;SDS_P1;SDS_P2;PMS_P1;PMS_P2;Temp;Humidity;BMP_temperature;BMP_pressure;BME280_temperature;BME280_humidity;BME280_pressure;Samples;Min_cycle;Max_cycle;Signal;HPM_P1;HPM_P2
2023/10/24 00:02:18;;;;;;;28.30;16.52;;;;;;;17.85;69.46;101026.22;4955937;28;20130;-78
2023/10/24 00:04:45;;;;;;;26.33;15.52;;;;;;;17.92;69.76;101065.63;4949707;28;20437;-78
2023/10/24 00:07:14;;;;;;;21.15;16.10;;;;;;;18.03;69.75;101090.44;4941958;28;20077;-80
2023/10/24 00:09:43;;;;;;;25.02;17.33;;;;;;;17.91;70.45;101087.28;4946907;28;20054;-80
2023/10/24 00:12:10;;;;;;;24.80;16.40;;;;;;;17.95;70.39;101085.94;4965481;28;20061;-77
2023/10/24 00:14:41;;;;;;;18.63;13.63;;;;;;;18.01;70.32;101090.63;4946266;28;20124;-78
2023/10/24 00:17:08;;;;;;;;;;;;;;;17.93;70.86;101104.91;4953504;28;20843;-76
2023/10/24 00:19:40;;;;;;;25.10;15.77;;;;;;;17.87;70.90;101088.66;4932656;28;19984;-79
2023/10/24 00:22:08;;;;;;;20.80;13.30;;;;;;;17.40;71.04;100998.13;4923683;28;20054;-78
2023/10/24 00:24:35;;;;;;;22.20;15.35;;;;;;;17.58;71.10;101047.06;4940388;28;20128;-76
2023/10/24 00:27:02;;;;;;;18.58;12.88;;;;;;;17.88;71.31;101090.31;4954951;28;20089;-77
2023/10/24 00:29:29;;;;;;;19.45;13.43;;;;;;;17.75;71.53;101090.00;4963836;28;20046;-76
2023/10/24 00:31:56;;;;;;;17.77;10.00;;;;;;;17.76;71.67;101097.03;4960533;28;20396;-76
2023/10/24 00:34:27;;;;;;;21.80;13.73;;;;;;;17.76;72.21;101086.28;4964230;28;20119;-80
2023/10/24 00:36:54;;;;;;;23.03;13.87;;;;;;;17.75;71.97;101084.63;4968984;28;20498;-77
2023/10/24 00:39:22;;;;;;;22.17;15.85;;;;;;;17.71;72.32;101084.94;4966326;28;20046;-78
2023/10/24 00:41:49;;;;;;;22.83;14.07;;;;;;;17.63;72.19;101049.25;4955610;28;20054;-77
2023/10/24 00:44:16;;;;;;;16.67;11.80;;;;;;;17.87;71.95;101094.03;4938773;28;20108;-76
2023/10/24 00:46:43;;;;;;;18.10;12.93;;;;;;;17.73;71.96;101082.09;4949419;28;20062;-78
2023/10/24 00:49:16;;;;;;;18.25;13.32;;;;;;;17.75;72.47;101106.94;4906923;28;20255;-78
2023/10/24 00:51:46;;;;;;;19.90;13.15;;;;;;;17.75;72.80;101090.00;4913339;28;20126;-78
2023/10/24 00:54:13;;;;;;;15.75;9.95;;;;;;;17.76;72.47;101070.19;4934132;28;20050;-79
2023/10/24 00:56:46;;;;;;;13.88;11.93;;;;;;;17.73;72.81;101074.88;4937284;28;20347;-79
2023/10/24 00:59:14;;;;;;;18.88;15.35;;;;;;;17.82;72.63;101081.09;4951756;28;20424;-78
2023/10/24 01:01:41;;;;;;;19.42;15.32;;;;;;;17.82;72.71;101085.66;4951359;28;20130;-79
2023/10/24 01:04:14;;;;;;;20.25;16.10;;;;;;;17.71;72.25;101038.47;4948031;28;20050;-78
2023/10/24 01:06:43;;;;;;;24.15;15.52;;;;;;;17.80;73.05;101063.47;4948702;28;20488;-78
2023/10/24 01:09:12;;;;;;;21.83;15.30;;;;;;;17.69;73.39;101044.03;4947792;28;20125;-79
2023/10/24 01:11:44;;;;;;;27.02;18.63;;;;;;;17.76;73.25;101051.38;4947868;28;20401;-79
2023/10/24 01:14:12;;;;;;;25.25;19.33;;;;;;;17.52;73.19;101002.09;4957060;28;20462;-79
2023/10/24 01:16:46;;;;;;;23.35;16.35;;;;;;;17.66;73.47;101022.03;4957811;28;20363;-78
2023/10/24 01:19:15;;;;;;;25.05;16.48;;;;;;;17.78;73.22;101030.56;4945818;28;20120;-80
2023/10/24 01:21:45;;;;;;;23.40;17.00;;;;;;;17.52;73.19;100991.38;4948022;28;20161;-80
2023/10/24 01:24:24;;;;;;;26.58;18.08;;;;;;;17.55;73.31;100999.09;4951591;28;20484;-77
2023/10/24 01:27:05;;;;;;;23.50;18.50;;;;;;;17.68;72.71;101007.44;4944653;28;20129;-80
2023/10/24 01:29:44;;;;;;;16.38;14.45;;;;;;;17.68;73.05;101022.72;4935355;28;20054;-80
2023/10/24 01:32:11;;;;;;;20.90;17.27;;;;;;;17.55;73.40;101001.78;4945451;28;20082;-79
2023/10/24 01:34:38;;;;;;;30.67;19.20;;;;;;;17.70;73.39;101034.13;4953286;28;20081;-76
2023/10/24 01:37:05;;;;;;;25.30;20.10;;;;;;;17.44;73.56;101002.16;4951167;28;20082;-78
2023/10/24 01:39:32;;;;;;;28.15;20.85;;;;;;;17.66;73.63;101022.88;4946230;28;20516;-77
2023/10/24 01:42:01;;;;;;;23.27;16.02;;;;;;;17.63;73.82;101012.50;4930294;28;20260;-81
2023/10/24 01:44:28;;;;;;;22.27;19.42;;;;;;;17.60;73.85;101012.84;4947293;28;20529;-79
2023/10/24 01:46:57;;;;;;;26.73;21.35;;;;;;;17.57;73.86;101013.16;4950225;28;20461;-80
2023/10/24 01:49:29;;;;;;;28.35;21.08;;;;;;;17.35;74.42;100989.75;4941320;28;20058;-81
2023/10/24 01:51:56;;;;;;;26.25;20.30;;;;;;;17.43;74.59;101013.91;4947853;28;20500;-80
2023/10/24 01:54:31;;;;;;;22.35;17.48;;;;;;;17.34;74.86;100985.41;4933079;28;20559;-81
2023/10/24 01:57:07;;;;;;;23.63;20.33;;;;;;;17.37;74.69;100980.50;4926749;28;20112;-79
2023/10/24 01:59:41;;;;;;;20.08;15.07;;;;;;;17.03;74.61;100913.69;4921869;28;20046;-78
2023/10/24 02:02:07;;;;;;;24.52;20.50;;;;;;;17.48;75.04;100984.69;4943811;28;20054;-79
2023/10/24 02:04:37;;;;;;;27.52;20.30;;;;;;;17.57;74.91;100980.13;4974728;28;20051;-80
2023/10/24 02:07:04;;;;;;;28.55;22.08;;;;;;;17.37;74.60;100959.03;4953384;28;20058;-79
2023/10/24 02:09:31;;;;;;;27.92;21.42;;;;;;;17.56;74.80;100981.16;4923466;28;20491;-78
2023/10/24 02:12:02;;;;;;;25.80;21.55;;;;;;;17.51;74.69;100985.19;4939290;28;20133;-79
2023/10/24 02:14:30;;;;;;;22.55;15.77;;;;;;;17.47;74.77;100964.22;4930342;28;20047;-79
2023/10/24 02:16:57;;;;;;;33.38;21.77;;;;;;;17.53;75.01;100985.00;4961476;28;20070;-79
2023/10/24 02:19:30;;;;;;;28.38;21.25;;;;;;;17.50;74.93;100975.47;4932516;28;20051;-80
2023/10/24 02:21:58;;;;;;;26.27;21.05;;;;;;;17.26;75.15;100929.91;4927039;28;20061;-77
2023/10/24 02:24:25;;;;;;;22.77;19.83;;;;;;;17.54;75.04;100948.25;4937574;28;20077;-80
2023/10/24 02:26:52;;;;;;;29.88;22.40;;;;;;;17.30;75.00;100902.53;4945970;28;20500;-78
2023/10/24 02:29:19;;;;;;;33.03;21.63;;;;;;;17.53;74.84;100936.69;4936142;28;20519;-79
2023/10/24 02:31:46;;;;;;;28.33;22.35;;;;;;;17.47;75.12;100938.22;4941587;28;20427;-79
2023/10/24 02:34:13;;;;;;;23.67;19.63;;;;;;;17.14;75.59;100889.19;4925942;28;20052;-81
2023/10/24 02:36:40;;;;;;;27.95;22.05;;;;;;;17.35;75.66;100914.59;4935246;28;20108;-79
2023/10/24 02:39:09;;;;;;;19.25;14.77;;;;;;;17.44;76.04;100927.00;4916700;28;20083;-80
2023/10/24 02:41:36;;;;;;;28.15;21.50;;;;;;;17.46;75.98;100930.34;4939295;28;20473;-78
2023/10/24 02:44:06;;;;;;;32.95;23.38;;;;;;;17.16;75.83;100876.47;4919687;28;20479;-80
2023/10/24 02:46:32;;;;;;;34.20;24.02;;;;;;;17.52;75.63;100918.91;4921294;28;20157;-77
2023/10/24 02:48:59;;;;;;;32.45;22.60;;;;;;;17.47;75.57;100927.47;4922671;28;20065;-80
2023/10/24 02:51:27;;;;;;;34.17;25.02;;;;;;;17.24;75.45;100872.91;4919621;28;20355;-78
2023/10/24 02:53:53;;;;;;;30.58;25.65;;;;;;;17.53;75.69;100912.53;4930547;28;20053;-79
2023/10/24 02:56:20;;;;;;;30.25;24.15;;;;;;;16.98;75.92;100819.50;4937956;28;20140;-79
2023/10/24 02:58:48;;;;;;;29.10;20.40;;;;;;;17.49;75.68;100903.16;4959949;28;20504;-79
2023/10/24 03:01:15;;;;;;;32.33;24.70;;;;;;;17.11;75.61;100832.38;4936862;28;20323;-79
2023/10/24 03:03:42;;;;;;;33.28;24.38;;;;;;;17.57;75.56;100913.84;4951142;28;20390;-78
2023/10/24 03:06:18;;;;;;;18.88;12.57;;;;;;;17.58;75.71;100903.97;4936911;28;20312;-80
2023/10/24 03:08:48;;;;;;;25.35;22.38;;;;;;;17.19;75.30;100808.22;4936374;28;20337;-78
2023/10/24 03:11:23;;;;;;;30.33;24.98;;;;;;;17.23;75.46;100830.97;4926481;28;20421;-79
2023/10/24 03:13:55;;;;;;;26.25;20.17;;;;;;;17.54;75.66;100884.66;4935131;28;20046;-79
2023/10/24 03:16:22;;;;;;;31.48;24.38;;;;;;;17.58;75.65;100869.06;4942976;28;20058;-78
2023/10/24 03:18:56;;;;;;;31.42;24.55;;;;;;;17.56;75.47;100861.19;4939210;28;20054;-78
2023/10/24 03:21:34;;;;;;;31.58;25.55;;;;;;;17.54;75.27;100863.19;4933292;28;20628;-77
2023/10/24 03:24:00;;;;;;;16.25;12.50;;;;;;;17.56;75.41;100863.88;4957681;28;20757;-80
2023/10/24 03:26:33;;;;;;;31.73;25.10;;;;;;;17.27;75.21;100790.22;4946518;28;20376;-77
2023/10/24 03:29:02;;;;;;;24.88;19.02;;;;;;;17.64;75.53;100845.03;4927024;28;20554;-79
2023/10/24 03:31:30;;;;;;;31.10;24.50;;;;;;;17.68;74.74;100835.59;4945600;28;20433;-79
2023/10/24 03:33:57;;;;;;;18.45;12.07;;;;;;;17.72;75.29;100852.22;4928972;28;20149;-79
2023/10/24 03:36:24;;;;;;;29.42;22.63;;;;;;;17.68;74.65;100795.34;4936629;28;20528;-78
2023/10/24 03:38:51;;;;;;;24.17;17.33;;;;;;;17.90;74.44;100836.66;4933027;28;20346;-78
2023/10/24 03:41:21;;;;;;;32.53;24.38;;;;;;;17.94;74.27;100826.41;4933069;28;20057;-80
2023/10/24 03:43:51;;;;;;;19.20;14.38;;;;;;;17.78;73.86;100805.84;4929136;28;20469;-80
2023/10/24 03:46:18;;;;;;;30.45;23.42;;;;;;;18.05;73.88;100835.88;4938236;28;20581;-80
2023/10/24 03:48:45;;;;;;;24.52;18.10;;;;;;;18.10;74.05;100841.56;4909700;28;20404;-80
2023/10/24 03:51:18;;;;;;;27.98;21.63;;;;;;;18.19;73.42;100848.53;4936542;28;20541;-79
2023/10/24 03:53:47;;;;;;;30.60;23.60;;;;;;;18.19;73.28;100828.91;4944407;28;20065;-80
2023/10/24 03:56:14;;;;;;;20.20;12.75;;;;;;;18.02;73.69;100812.91;4958154;28;20497;-80
2023/10/24 03:58:41;;;;;;;28.08;21.80;;;;;;;18.11;73.92;100801.09;4945073;28;20053;-79
2023/10/24 04:01:08;;;;;;;29.23;22.08;;;;;;;18.27;73.12;100786.66;4954433;28;20058;-78
2023/10/24 04:03:35;;;;;;;15.57;11.60;;;;;;;18.22;72.96;100758.69;4945794;28;20149;-77
2023/10/24 04:06:09;;;;;;;14.45;11.95;;;;;;;18.22;73.12;100764.06;4943323;28;20054;-77
2023/10/24 04:08:37;;;;;;;17.60;14.13;;;;;;;18.14;73.36;100756.91;4925194;28;20050;-78
2023/10/24 04:11:12;;;;;;;40.05;25.10;;;;;;;18.21;73.40;100768.59;4943495;28;20229;-80
2023/10/24 04:13:39;;;;;;;32.45;23.33;;;;;;;18.19;73.20;100754.50;4946774;28;20515;-78
2023/10/24 04:16:06;;;;;;;39.33;26.83;;;;;;;18.22;73.45;100774.78;4945617;28;20480;-77
2023/10/24 04:18:37;;;;;;;20.50;16.40;;;;;;;18.01;73.41;100733.34;4946390;28;20131;-78
2023/10/24 04:21:04;;;;;;;34.93;24.03;;;;;;;18.21;73.52;100773.13;4929578;28;20500;-80
2023/10/24 04:23:31;;;;;;;29.05;25.02;;;;;;;18.11;73.47;100754.59;4973173;28;20451;-79
2023/10/24 04:25:58;;;;;;;17.08;12.02;;;;;;;18.09;73.56;100743.19;4973838;28;20160;-79
2023/10/24 04:28:25;;;;;;;23.13;19.08;;;;;;;18.30;73.37;100754.06;4967229;28;20133;-80
2023/10/24 04:30:53;;;;;;;29.25;22.05;;;;;;;18.41;72.75;100736.66;4962326;28;20057;-78
2023/10/24 04:33:24;;;;;;;39.70;25.45;;;;;;;18.20;71.92;100663.97;4958510;28;20053;-80
2023/10/24 04:35:55;;;;;;;32.28;25.88;;;;;;;18.29;72.10;100724.69;4963664;28;20057;-79
2023/10/24 04:38:26;;;;;;;34.88;26.02;;;;;;;18.27;72.48;100721.34;4940341;28;20298;-80
2023/10/24 04:40:57;;;;;;;16.23;12.95;;;;;;;18.37;72.64;100729.97;4949748;28;20388;-79
2023/10/24 04:43:24;;;;;;;14.77;12.02;;;;;;;18.42;72.66;100726.72;4962986;28;20484;-78
2023/10/24 04:45:52;;;;;;;14.20;11.95;;;;;;;18.38;72.47;100704.78;4945277;28;20441;-77
2023/10/24 04:48:19;;;;;;;19.92;13.18;;;;;;;18.49;72.66;100711.53;4935151;28;20062;-79
2023/10/24 04:50:46;;;;;;;27.13;17.25;;;;;;;18.17;72.25;100630.25;4959877;28;20484;-79
2023/10/24 04:53:16;;;;;;;27.75;18.10;;;;;;;18.34;72.22;100653.22;4959943;28;20497;-78
2023/10/24 04:55:43;;;;;;;31.45;23.58;;;;;;;18.47;72.19;100649.03;4948753;28;20050;-78
2023/10/24 04:58:10;;;;;;;32.75;25.92;;;;;;;18.33;72.95;100661.50;4945415;28;20130;-78
2023/10/24 05:00:37;;;;;;;24.63;15.07;;;;;;;18.12;73.70;100641.56;4947056;28;20054;-78
2023/10/24 05:03:04;;;;;;;23.08;18.10;;;;;;;18.25;73.54;100640.06;4960970;28;20058;-78
2023/10/24 05:05:31;;;;;;;24.52;16.65;;;;;;;18.35;72.99;100636.09;4965066;28;20294;-78
2023/10/24 05:07:57;;;;;;;30.25;21.50;;;;;;;18.41;72.91;100628.31;4935497;28;20634;-80
2023/10/24 05:10:24;;;;;;;38.72;24.80;;;;;;;18.21;73.49;100593.13;4929887;28;20058;-80
2023/10/24 05:12:52;;;;;;;41.25;25.20;;;;;;;17.94;74.11;100579.31;4954092;28;20505;-78
2023/10/24 05:15:24;;;;;;;34.53;21.98;;;;;;;18.22;74.63;100646.66;4935978;28;20047;-80
2023/10/24 05:17:55;;;;;;;24.33;16.67;;;;;;;18.30;73.82;100632.28;4958133;28;20432;-78
2023/10/24 05:20:22;;;;;;;33.03;23.92;;;;;;;18.02;74.93;100595.34;4925585;28;20449;-78
2023/10/24 05:22:49;;;;;;;47.60;23.45;;;;;;;18.14;75.60;100631.47;4927624;28;20078;-80
2023/10/24 05:25:16;;;;;;;33.65;21.27;;;;;;;18.26;74.96;100633.69;4976703;28;20054;-80
2023/10/24 05:27:43;;;;;;;18.98;11.93;;;;;;;18.05;75.60;100586.91;4963935;28;20137;-78
2023/10/24 05:30:11;;;;;;;32.42;18.65;;;;;;;18.36;74.38;100610.06;4937593;28;20065;-78
2023/10/24 05:32:41;;;;;;;15.27;10.85;;;;;;;18.27;74.86;100584.28;4951622;28;20049;-79
2023/10/24 05:35:10;;;;;;;13.98;10.75;;;;;;;18.35;73.95;100570.78;4954095;28;20053;-78
2023/10/24 05:37:37;;;;;;;23.83;15.27;;;;;;;18.52;73.98;100579.41;4962868;28;20074;-79
2023/10/24 05:40:06;;;;;;;21.77;12.52;;;;;;;18.56;74.11;100570.78;4956481;28;20042;-78
2023/10/24 05:42:34;;;;;;;25.60;14.10;;;;;;;18.77;72.81;100564.66;4933973;28;20597;-78
2023/10/24 05:45:01;;;;;;;38.53;19.88;;;;;;;18.85;72.46;100561.00;4929131;28;20478;-79
2023/10/24 05:47:28;;;;;;;16.38;9.57;;;;;;;18.67;72.25;100526.47;4941190;28;20625;-80
2023/10/24 05:49:55;;;;;;;42.35;21.58;;;;;;;18.75;72.91;100565.84;4941323;28;20213;-79
2023/10/24 05:52:21;;;;;;;34.47;21.23;;;;;;;18.67;73.95;100560.59;4958006;28;20408;-79
2023/10/24 05:54:49;;;;;;;40.08;24.20;;;;;;;18.57;74.13;100564.41;4941236;28;20490;-80
2023/10/24 05:57:18;;;;;;;30.67;14.07;;;;;;;18.55;72.99;100528.00;4955817;28;20064;-80
2023/10/24 05:59:49;;;;;;;36.55;20.02;;;;;;;18.57;73.57;100524.09;4952936;28;20058;-80
2023/10/24 06:02:17;;;;;;;15.65;10.80;;;;;;;18.46;73.53;100500.38;4921499;28;20647;-79
2023/10/24 06:04:44;;;;;;;38.28;21.73;;;;;;;18.63;73.56;100518.97;4922249;28;20442;-79
2023/10/24 06:07:13;;;;;;;26.60;16.10;;;;;;;18.57;74.15;100528.63;4933414;28;20508;-78
2023/10/24 06:09:40;;;;;;;45.33;27.13;;;;;;;18.49;74.44;100524.19;4920546;28;20051;-79
2023/10/24 06:12:08;;;;;;;29.42;17.20;;;;;;;18.49;74.70;100545.69;4922520;28;20057;-79
2023/10/24 06:14:35;;;;;;;26.85;15.73;;;;;;;18.46;73.98;100503.06;4947646;28;20113;-78
2023/10/24 06:17:05;;;;;;;39.55;22.75;;;;;;;18.52;74.23;100506.84;4960762;28;20051;-77
2023/10/24 06:19:33;;;;;;;37.38;24.25;;;;;;;18.48;74.27;100503.72;4938304;28;20057;-79
2023/10/24 06:22:00;;;;;;;37.05;25.73;;;;;;;18.61;74.64;100512.94;4953116;28;20152;-80
2023/10/24 06:24:27;;;;;;;24.02;13.00;;;;;;;18.44;74.74;100480.09;4979819;28;20412;-78
2023/10/24 06:26:58;;;;;;;32.30;18.63;;;;;;;18.03;74.32;100394.72;4972459;28;20436;-78
2023/10/24 06:29:25;;;;;;;13.10;8.23;;;;;;;18.77;73.38;100515.41;4949180;28;20715;-79
2023/10/24 06:31:52;;;;;;;30.65;18.90;;;;;;;18.43;73.69;100459.63;4937961;28;20063;-80
2023/10/24 06:34:23;;;;;;;44.00;24.40;;;;;;;18.71;74.87;100518.84;4943483;28;20472;-79
2023/10/24 06:36:51;;;;;;;40.80;25.20;;;;;;;18.66;74.74;100519.41;4956484;28;20509;-78
2023/10/24 06:39:21;;;;;;;32.83;24.20;;;;;;;18.52;75.24;100491.56;4934977;28;20201;-77
2023/10/24 06:41:48;;;;;;;27.02;13.95;;;;;;;18.53;75.33;100503.97;4928914;28;20070;-78
2023/10/24 06:44:15;;;;;;;21.92;14.77;;;;;;;18.54;75.56;100516.41;4948168;28;20393;-78
2023/10/24 06:46:42;;;;;;;17.48;10.93;;;;;;;18.57;74.82;100497.19;4949327;28;20076;-79
2023/10/24 06:49:12;;;;;;;33.00;17.65;;;;;;;18.75;74.40;100495.91;4950064;28;20042;-79
2023/10/24 06:51:39;;;;;;;12.05;8.38;;;;;;;18.70;74.55;100477.66;4958495;28;20058;-79
2023/10/24 06:54:06;;;;;;;29.73;20.15;;;;;;;18.73;74.02;100473.75;4953838;28;20105;-79
2023/10/24 06:56:36;;;;;;;23.00;13.13;;;;;;;18.38;73.89;100398.38;4938669;28;20046;-80
2023/10/24 06:59:06;;;;;;;31.88;21.05;;;;;;;18.87;73.67;100461.31;4936911;28;20619;-79
2023/10/24 07:01:36;;;;;;;19.10;12.05;;;;;;;18.79;73.03;100451.53;4948639;28;20175;-79
2023/10/24 07:04:03;;;;;;;29.08;17.00;;;;;;;18.88;72.96;100442.25;4942284;28;20136;-79
2023/10/24 07:06:30;;;;;;;36.78;23.58;;;;;;;18.82;73.94;100464.56;4963227;28;20109;-77
2023/10/24 07:09:00;;;;;;;23.23;16.05;;;;;;;18.58;73.14;100406.63;4942887;28;20104;-77
2023/10/24 07:11:27;;;;;;;30.33;15.38;;;;;;;18.52;73.18;100413.63;4924786;28;20394;-77
2023/10/24 07:13:54;;;;;;;28.35;18.55;;;;;;;18.89;73.68;100462.78;4942156;28;20055;-77
2023/10/24 07:16:21;;;;;;;18.25;13.05;;;;;;;18.80;73.29;100450.47;4926061;28;20906;-80
2023/10/24 07:18:54;;;;;;;32.33;21.40;;;;;;;18.98;73.34;100448.16;4913010;28;20051;-78
2023/10/24 07:21:26;;;;;;;46.42;24.85;;;;;;;18.79;75.06;100449.66;4946348;28;20421;-80
2023/10/24 07:23:54;;;;;;;26.75;17.50;;;;;;;18.84;74.35;100441.00;4946471;28;20559;-78
2023/10/24 07:26:26;;;;;;;38.40;21.40;;;;;;;18.77;75.31;100429.38;4929773;28;20063;-78
2023/10/24 07:28:54;;;;;;;50.60;23.42;;;;;;;18.45;75.47;100358.97;4959935;28;20050;-77
2023/10/24 07:31:22;;;;;;;40.90;23.80;;;;;;;18.62;75.35;100377.47;4918957;28;20051;-77
2023/10/24 07:33:49;;;;;;;32.25;20.77;;;;;;;18.72;75.65;100404.88;4928862;28;20081;-77
2023/10/24 07:36:16;;;;;;;33.90;18.80;;;;;;;18.69;76.31;100422.25;4933196;28;20055;-77
2023/10/24 07:38:43;;;;;;;22.83;14.95;;;;;;;18.64;75.99;100418.44;4933750;28;20481;-76
2023/10/24 07:41:10;;;;;;;19.00;9.38;;;;;;;18.75;75.23;100450.22;4938966;28;20043;-77
2023/10/24 07:43:37;;;;;;;35.03;20.73;;;;;;;18.84;75.30;100451.78;4935623;28;20632;-77
2023/10/24 07:46:05;;;;;;;22.00;14.02;;;;;;;18.62;75.77;100437.50;4949091;28;20136;-79
2023/10/24 07:48:32;;;;;;;27.58;18.33;;;;;;;18.78;76.45;100484.81;4951852;28;20408;-78
2023/10/24 07:50:59;;;;;;;32.50;18.67;;;;;;;18.78;76.64;100482.13;4930678;28;20110;-80
2023/10/24 07:53:29;;;;;;;30.58;13.93;;;;;;;18.65;75.69;100447.03;4948790;28;20086;-81
2023/10/24 07:55:56;;;;;;;22.38;15.18;;;;;;;18.75;75.26;100432.22;4958259;28;20053;-78
2023/10/24 07:58:24;;;;;;;32.65;19.27;;;;;;;18.96;75.37;100414.41;4941283;28;20416;-78
2023/10/24 08:00:51;;;;;;;28.67;15.90;;;;;;;18.90;76.54;100413.31;4940169;28;20043;-79
2023/10/24 08:03:19;;;;;;;31.05;12.68;;;;;;;19.07;75.27;100407.66;4936233;28;20057;-78
2023/10/24 08:05:46;;;;;;;22.42;11.85;;;;;;;19.12;74.96;100413.28;4936019;28;20356;-78
2023/10/24 08:08:13;;;;;;;16.65;7.32;;;;;;;19.20;73.67;100413.13;4949184;28;20053;-79
2023/10/24 08:10:40;;;;;;;30.95;9.63;;;;;;;19.27;74.51;100407.78;4946824;28;20086;-79
2023/10/24 08:13:10;;;;;;;20.27;8.65;;;;;;;19.35;74.46;100407.63;4947234;28;20500;-80
2023/10/24 08:15:37;;;;;;;24.67;10.48;;;;;;;19.17;77.15;100391.97;4943227;28;20042;-79
2023/10/24 08:18:07;;;;;;;41.88;12.30;;;;;;;19.26;79.39;100417.72;4929546;28;20057;-80
2023/10/24 08:20:34;;;;;;;28.40;12.18;;;;;;;19.22;77.35;100386.84;4930838;28;20054;-79
2023/10/24 08:23:01;;;;;;;43.00;11.93;;;;;;;19.28;77.75;100383.38;4956267;28;20144;-80
2023/10/24 08:25:28;;;;;;;33.08;11.57;;;;;;;19.35;80.49;100370.78;4939793;28;20896;-80
2023/10/24 08:27:55;;;;;;;35.03;12.50;;;;;;;19.26;82.95;100353.13;4961019;28;20116;-79
2023/10/24 08:30:22;;;;;;;29.77;11.15;;;;;;;19.24;83.34;100344.41;4936404;28;20057;-81
2023/10/24 08:32:49;;;;;;;25.10;11.27;;;;;;;19.33;82.89;100369.31;4934006;28;20368;-79
2023/10/24 08:35:17;;;;;;;34.83;14.27;;;;;;;19.39;82.75;100365.81;4930892;28;20472;-78
2023/10/24 08:37:47;;;;;;;35.25;16.05;;;;;;;19.52;81.74;100394.66;4936019;28;20267;-79
2023/10/24 08:40:14;;;;;;;33.20;17.92;;;;;;;19.55;80.97;100378.09;4935489;28;20055;-79
2023/10/24 08:42:42;;;;;;;35.35;18.08;;;;;;;19.45;80.10;100381.16;4941859;28;20561;-79
2023/10/24 08:45:11;;;;;;;37.63;21.02;;;;;;;19.35;80.95;100357.31;4937284;28;20057;-78
2023/10/24 08:47:38;;;;;;;45.10;21.98;;;;;;;19.37;81.14;100374.09;4940130;28;20455;-80
2023/10/24 08:50:12;;;;;;;36.47;18.90;;;;;;;18.94;81.95;100312.38;4913544;28;20225;-78
2023/10/24 08:52:46;;;;;;;35.13;24.58;;;;;;;19.35;81.61;100367.25;4924172;28;20081;-78
2023/10/24 08:55:13;;;;;;;38.80;23.42;;;;;;;19.28;81.33;100337.59;4934303;28;20394;-78
2023/10/24 08:57:45;;;;;;;53.42;26.10;;;;;;;19.25;80.92;100346.09;4956745;28;20054;-78
2023/10/24 09:00:14;;;;;;;43.85;28.10;;;;;;;18.56;81.21;100240.16;4944378;28;20073;-78
2023/10/24 09:02:43;;;;;;;35.55;22.17;;;;;;;19.03;80.84;100317.59;4953020;28;20058;-79
2023/10/24 09:05:14;;;;;;;52.40;32.72;;;;;;;18.58;81.63;100248.84;4930407;28;20446;-80
2023/10/24 09:07:41;;;;;;;43.55;29.38;;;;;;;19.26;80.63;100345.03;4944409;28;20077;-79
2023/10/24 09:10:08;;;;;;;55.47;33.67;;;;;;;19.13;80.34;100347.69;4940776;28;20062;-78
2023/10/24 09:12:38;;;;;;;52.95;31.08;;;;;;;19.08;79.66;100355.50;4948352;28;20492;-78
2023/10/24 09:15:11;;;;;;;35.17;24.77;;;;;;;18.91;79.49;100338.84;4946818;28;20058;-79
2023/10/24 09:17:38;;;;;;;44.30;30.27;;;;;;;18.84;79.81;100346.88;4928166;28;20057;-78
2023/10/24 09:20:08;;;;;;;42.60;31.55;;;;;;;18.78;80.99;100334.22;4937818;28;20085;-79
2023/10/24 09:22:41;;;;;;;41.08;26.85;;;;;;;18.43;80.44;100288.44;4954376;28;20043;-80
2023/10/24 09:25:16;;;;;;;43.28;27.00;;;;;;;18.65;81.05;100351.06;4993243;28;20678;-80
2023/10/24 09:27:46;;;;;;;42.20;27.92;;;;;;;18.53;81.49;100350.75;4969296;28;20112;-78
2023/10/24 09:30:17;;;;;;;46.35;28.02;;;;;;;18.50;81.08;100353.84;4959567;28;20496;-79
2023/10/24 09:32:44;;;;;;;41.47;26.83;;;;;;;18.41;81.56;100351.47;4964296;28;20484;-80
2023/10/24 09:35:13;;;;;;;37.35;25.13;;;;;;;18.22;82.21;100344.91;4970715;28;20061;-79
2023/10/24 09:37:49;;;;;;;43.00;26.67;;;;;;;18.02;82.39;100307.94;4985347;28;20046;-78
2023/10/24 09:40:17;;;;;;;40.00;24.95;;;;;;;18.08;83.79;100342.09;4983855;28;20424;-79
2023/10/24 09:42:50;;;;;;;44.90;24.95;;;;;;;18.02;84.07;100360.84;4984461;28;20129;-77
2023/10/24 09:45:18;;;;;;;33.20;20.60;;;;;;;17.97;83.91;100344.47;4985216;28;20578;-79
2023/10/24 09:47:51;;;;;;;38.67;22.60;;;;;;;17.94;84.08;100345.69;4963543;28;20047;-79
2023/10/24 09:50:26;;;;;;;44.63;24.73;;;;;;;18.00;84.85;100325.28;4980775;28;20051;-79
2023/10/24 09:52:54;;;;;;;34.08;16.17;;;;;;;17.74;84.65;100305.13;4970922;28;20046;-79
2023/10/24 09:55:26;;;;;;;44.63;26.05;;;;;;;17.79;85.83;100347.53;4979228;28;20080;-79
2023/10/24 09:57:59;;;;;;;43.20;23.05;;;;;;;17.76;86.36;100382.81;4961507;28;20054;-79
2023/10/24 10:00:31;;;;;;;;;;;;;;;17.77;86.17;100397.88;4961212;28;20051;-77
2023/10/24 10:03:09;;;;;;;29.15;20.20;;;;;;;17.79;85.80;100403.91;4947065;28;19922;-77
2023/10/24 10:05:48;;;;;;;27.95;18.50;;;;;;;17.60;85.75;100373.97;4961811;28;20047;-76
2023/10/24 10:08:19;;;;;;;27.48;17.40;;;;;;;17.71;86.13;100384.19;4961225;28;20058;-76
2023/10/24 10:10:59;;;;;;;31.67;18.67;;;;;;;17.59;86.18;100364.22;4957123;28;20061;-78
2023/10/24 10:13:30;;;;;;;28.40;16.58;;;;;;;17.53;85.96;100362.31;4962706;28;20117;-80
2023/10/24 10:16:28;;;;;;;24.17;17.45;;;;;;;17.59;86.59;100387.56;4960970;28;20066;-79
2023/10/24 10:19:26;;;;;;;31.48;18.45;;;;;;;17.48;87.38;100380.84;4963871;28;20192;-78
2023/10/24 10:22:22;;;;;;;25.77;16.02;;;;;;;17.33;88.03;100383.53;4958293;28;20526;-78
2023/10/24 10:25:13;;;;;;;28.20;17.85;;;;;;;17.39;88.73;100390.00;4997602;28;20729;-78
2023/10/24 10:28:19;;;;;;;23.95;14.98;;;;;;;17.43;88.28;100383.25;5001628;28;20061;-80
2023/10/24 10:31:02;;;;;;;20.77;16.02;;;;;;;17.40;88.13;100399.69;4923561;28;20046;-79
2023/10/24 10:33:54;;;;;;;22.13;15.25;;;;;;;17.21;89.18;100410.00;4949861;28;20113;-77
2023/10/24 10:36:25;;;;;;;25.42;16.42;;;;;;;17.30;89.27;100410.72;4951501;28;20042;-80
2023/10/24 10:38:56;;;;;;;21.52;15.65;;;;;;;17.22;89.08;100408.13;4949249;28;20725;-78
2023/10/24 10:41:28;;;;;;;20.92;15.48;;;;;;;17.21;88.91;100423.41;4961191;28;20146;-79
2023/10/24 10:43:58;;;;;;;19.02;13.48;;;;;;;17.12;89.40;100397.69;4962228;28;20121;-79
2023/10/24 10:46:28;;;;;;;20.80;15.15;;;;;;;17.14;89.78;100414.44;4955874;28;20705;-78
2023/10/24 10:49:07;;;;;;;18.58;15.90;;;;;;;16.74;89.63;100336.03;4970769;28;20215;-80
2023/10/24 10:51:36;;;;;;;22.52;14.43;;;;;;;17.11;90.35;100400.53;4980089;28;20038;-81
2023/10/24 10:54:32;;;;;;;17.42;13.82;;;;;;;17.12;90.87;100416.44;4980582;28;20078;-83
2023/10/24 10:57:03;;;;;;;16.77;13.50;;;;;;;17.12;89.61;100386.94;4978153;28;20105;-78
2023/10/24 10:59:33;;;;;;;;;;;;;;;17.03;90.28;100371.97;4967616;28;20455;-81
2023/10/24 11:02:34;;;;;;;11.35;9.30;;;;;;;16.98;90.49;100348.38;4970741;28;19976;-79
2023/10/24 11:06:01;;;;;;;16.85;12.40;;;;;;;17.09;90.29;100349.78;4969925;28;20889;-78
2023/10/24 11:08:28;;;;;;;17.08;12.30;;;;;;;17.11;90.24;100347.72;4919321;29;20056;-77
2023/10/24 11:10:57;;;;;;;15.18;12.48;;;;;;;17.04;90.19;100342.28;4966264;28;20042;-80
2023/10/24 11:13:40;;;;;;;13.45;9.15;;;;;;;17.09;90.28;100344.41;4979520;28;20073;-79
2023/10/24 11:16:10;;;;;;;15.85;12.63;;;;;;;17.04;90.96;100317.31;4981334;28;20669;-81
2023/10/24 11:18:56;;;;;;;15.32;11.93;;;;;;;16.70;90.56;100253.47;4979860;28;20057;-78
2023/10/24 11:21:23;;;;;;;15.85;12.00;;;;;;;17.12;90.32;100333.31;4980069;28;20057;-76
2023/10/24 11:23:51;;;;;;;14.68;11.73;;;;;;;17.20;89.94;100310.91;4980719;28;20046;-79